createdAt,value
2022-09-06T00:01:50.543Z,64.07
2022-09-06T00:04:17.287Z,64.07
2022-09-06T00:06:43.593Z,64.16
2022-09-06T00:09:09.883Z,64.53
2022-09-06T00:11:36.783Z,64.22
2022-09-06T00:14:03.087Z,64.76
2022-09-06T00:16:30.580Z,64.65
2022-09-06T00:18:57.330Z,64.89
2022-09-06T00:21:26.787Z,64.89
2022-09-06T00:23:53.701Z,64.63
2022-09-06T00:26:21.010Z,65.18
2022-09-06T00:28:47.680Z,65.66
2022-09-06T00:31:22.461Z,65.48
2022-09-06T00:33:49.343Z,65.61
2022-09-06T00:36:16.277Z,64.60
2022-09-06T00:38:42.989Z,64.18
2022-09-06T00:41:11.720Z,64.65
2022-09-06T00:43:39.359Z,64.79
2022-09-06T00:46:07.533Z,65.50
2022-09-06T00:48:35.791Z,65.52
2022-09-06T00:51:04.684Z,65.20
2022-09-06T00:53:31.986Z,64.95
2022-09-06T00:55:59.000Z,65.03
2022-09-06T00:58:25.759Z,65.47
2022-09-06T01:00:52.065Z,65.31
2022-09-06T01:03:19.502Z,65.28
2022-09-06T01:06:06.684Z,65.43
2022-09-06T01:08:51.646Z,65.13
2022-09-06T01:12:02.337Z,65.24
2022-09-06T01:14:52.194Z,65.43
2022-09-06T01:17:34.074Z,65.58
2022-09-06T01:20:26.915Z,66.04
2022-09-06T01:22:53.135Z,66.29
2022-09-06T01:25:42.591Z,66.86
2022-09-06T01:28:34.972Z,67.31
2022-09-06T01:31:16.968Z,67.59
2022-09-06T01:34:06.618Z,68.01
2022-09-06T01:36:45.754Z,68.64
2022-09-06T01:39:24.840Z,68.59
2022-09-06T01:41:52.029Z,68.73
2022-09-06T01:44:18.498Z,69.14
2022-09-06T01:47:08.432Z,69.73
2022-09-06T01:49:58.826Z,69.82
2022-09-06T01:52:43.492Z,69.90
2022-09-06T01:55:27.708Z,70.09
2022-09-06T01:58:35.728Z,70.69
2022-09-06T02:01:30.722Z,70.19
2022-09-06T02:03:57.247Z,70.79
2022-09-06T02:06:29.749Z,70.07
2022-09-06T02:09:19.043Z,70.48
2022-09-06T02:11:50.397Z,70.07
2022-09-06T02:14:23.719Z,69.96
2022-09-06T02:16:51.188Z,70.72
2022-09-06T02:19:17.411Z,70.07
2022-09-06T02:21:46.188Z,69.89
2022-09-06T02:24:21.518Z,69.93
2022-09-06T02:26:48.297Z,70.66
2022-09-06T02:29:15.835Z,69.63
2022-09-06T02:31:54.685Z,69.17
2022-09-06T02:34:21.849Z,70.16
2022-09-06T02:36:48.306Z,69.81
2022-09-06T02:39:14.628Z,69.89
2022-09-06T02:41:42.500Z,70.50
2022-09-06T02:44:08.831Z,70.60
2022-09-06T02:46:35.151Z,70.69
2022-09-06T02:49:01.895Z,70.51
2022-09-06T02:51:28.233Z,70.94
2022-09-06T02:53:54.654Z,71.43
2022-09-06T02:56:21.234Z,71.41
2022-09-06T02:58:47.533Z,72.12
2022-09-06T03:01:13.940Z,72.44
2022-09-06T03:03:40.576Z,72.83
2022-09-06T03:06:07.078Z,73.18
2022-09-06T03:08:34.203Z,73.35
2022-09-06T03:11:01.155Z,73.78
2022-09-06T03:13:27.658Z,74.24
2022-09-06T03:15:58.016Z,74.08
2022-09-06T03:18:25.989Z,74.51
2022-09-06T03:20:53.500Z,74.38
2022-09-06T03:23:23.586Z,74.55
2022-09-06T03:25:50.515Z,74.70
2022-09-06T03:28:18.372Z,74.61
2022-09-06T03:30:46.120Z,74.78
2022-09-06T03:33:13.023Z,74.73
2022-09-06T03:35:39.709Z,74.41
2022-09-06T03:38:05.975Z,73.66
2022-09-06T03:40:32.552Z,73.41
2022-09-06T03:42:58.821Z,73.66
2022-09-06T03:45:25.104Z,73.01
2022-09-06T03:47:51.740Z,72.67
2022-09-06T03:50:18.047Z,72.21
2022-09-06T03:52:44.352Z,72.49
2022-09-06T03:55:11.938Z,72.23
2022-09-06T03:57:38.254Z,72.57
2022-09-06T04:00:05.335Z,72.08
2022-09-06T04:02:37.606Z,72.14
2022-09-06T04:05:04.674Z,72.38
2022-09-06T04:07:30.956Z,72.13
2022-09-06T04:09:57.207Z,72.32
2022-09-06T04:12:23.831Z,72.25
2022-09-06T04:14:50.096Z,72.80
2022-09-06T04:17:16.388Z,73.36
2022-09-06T04:19:42.973Z,72.71
2022-09-06T04:22:09.272Z,73.43
2022-09-06T04:24:35.562Z,73.81
2022-09-06T04:27:02.150Z,73.99
2022-09-06T04:29:28.478Z,74.35
2022-09-06T04:31:54.808Z,73.91
2022-09-06T04:34:21.455Z,72.59
2022-09-06T04:36:48.575Z,72.31
2022-09-06T04:39:14.939Z,72.23
2022-09-06T04:41:42.375Z,72.61
2022-09-06T04:44:08.784Z,72.47
2022-09-06T04:46:35.106Z,72.33
2022-09-06T04:49:01.735Z,72.04
2022-09-06T04:51:28.103Z,71.95
2022-09-06T04:53:54.762Z,71.91
2022-09-06T04:56:23.959Z,72.05
2022-09-06T04:58:51.524Z,71.57
2022-09-06T05:01:18.005Z,71.03
2022-09-06T05:03:44.696Z,70.91
2022-09-06T05:06:13.948Z,71.06
2022-09-06T05:08:41.673Z,71.21
2022-09-06T05:11:09.431Z,72.13
2022-09-06T05:13:39.073Z,72.55
2022-09-06T05:16:07.465Z,73.42
2022-09-06T05:18:37.682Z,71.85
2022-09-06T05:21:07.505Z,72.38
2022-09-06T05:23:34.933Z,72.47
2022-09-06T05:26:01.926Z,72.52
2022-09-06T05:28:28.331Z,72.75
2022-09-06T05:31:12.872Z,73.68
2022-09-06T05:33:40.230Z,73.18
2022-09-06T05:36:07.939Z,72.67
2022-09-06T05:38:34.592Z,72.40
2022-09-06T05:41:01.017Z,71.88
2022-09-06T05:43:27.649Z,71.92
2022-09-06T05:45:54.113Z,72.43
2022-09-06T05:48:20.487Z,71.73
2022-09-06T05:50:47.143Z,70.87
2022-09-06T05:53:13.438Z,71.18
2022-09-06T05:55:42.854Z,70.93
2022-09-06T05:58:09.549Z,70.92
2022-09-06T06:00:35.897Z,70.74
2022-09-06T06:03:02.516Z,68.38
2022-09-06T06:05:29.061Z,67.68
2022-09-06T06:07:55.767Z,67.94
2022-09-06T06:10:22.348Z,66.33
2022-09-06T06:12:49.752Z,67.22
2022-09-06T06:15:16.186Z,67.70
2022-09-06T06:17:43.783Z,67.19
2022-09-06T06:20:11.096Z,68.12
2022-09-06T06:22:43.948Z,67.98
2022-09-06T06:25:23.801Z,68.57
2022-09-06T06:27:56.632Z,67.57
2022-09-06T06:30:26.013Z,67.00
2022-09-06T06:32:53.003Z,66.45
2022-09-06T06:35:19.410Z,65.70
2022-09-06T06:37:46.184Z,65.81
2022-09-06T06:40:13.543Z,65.50
2022-09-06T06:42:39.927Z,65.11
2022-09-06T06:45:07.269Z,65.45
2022-09-06T06:47:33.613Z,66.19
2022-09-06T06:49:59.940Z,67.45
2022-09-06T06:52:26.557Z,66.52
2022-09-06T06:54:53.283Z,66.48
2022-09-06T06:57:19.753Z,67.12
2022-09-06T06:59:46.463Z,67.62
2022-09-06T07:02:15.736Z,68.64
2022-09-06T07:04:42.203Z,67.64
2022-09-06T07:12:41.817Z,68.23
2022-09-06T07:15:08.690Z,69.49
2022-09-06T07:17:35.644Z,68.58
2022-09-06T07:22:36.801Z,68.41
2022-09-06T07:25:05.067Z,69.00
2022-09-06T07:27:47.743Z,68.29
2022-09-06T07:30:15.582Z,68.96
2022-09-06T07:32:41.939Z,67.87
2022-09-06T07:35:08.985Z,67.34
2022-09-06T07:37:35.683Z,65.83
2022-09-06T07:40:03.319Z,65.07
2022-09-06T07:42:35.679Z,64.55
2022-09-06T07:45:04.836Z,63.34
2022-09-06T07:55:33.525Z,55.77
2022-09-06T07:57:59.816Z,53.23
2022-09-06T08:00:26.362Z,52.29
2022-09-06T08:02:53.261Z,53.20
2022-09-06T08:10:53.459Z,53.27
2022-09-06T08:13:20.071Z,49.92
2022-09-06T08:15:46.370Z,46.78
2022-09-06T08:18:12.659Z,44.35
2022-09-06T08:20:39.698Z,44.95
2022-09-06T08:23:10.237Z,46.22
2022-09-06T08:25:36.570Z,44.02
2022-09-06T08:28:03.271Z,44.05
2022-09-06T08:30:29.579Z,45.18
2022-09-06T08:32:56.808Z,46.01
2022-09-06T08:35:23.464Z,47.09
2022-09-06T08:37:49.925Z,49.41
2022-09-06T08:40:20.860Z,46.49
2022-09-06T08:42:48.100Z,41.56
2022-09-06T08:45:19.057Z,40.56
2022-09-06T08:47:45.700Z,40.24
2022-09-06T08:50:12.327Z,43.01
2022-09-06T08:53:00.208Z,43.15
2022-09-06T08:55:44.826Z,40.64
2022-09-06T08:58:38.449Z,38.12
2022-09-06T09:01:11.665Z,35.65
2022-09-06T09:03:39.760Z,35.25
2022-09-06T09:06:10.176Z,34.58
2022-09-06T09:08:46.294Z,34.59
2022-09-06T09:11:17.571Z,33.99
2022-09-06T09:13:55.474Z,33.03
2022-09-06T09:16:22.796Z,31.08
2022-09-06T09:18:52.595Z,31.33
2022-09-06T09:21:23.912Z,31.62
2022-09-06T09:23:56.013Z,30.29
2022-09-06T09:26:27.570Z,29.14
2022-09-06T09:29:04.561Z,28.39
2022-09-06T09:31:39.827Z,28.91
2022-09-06T09:34:11.182Z,28.52
2022-09-06T09:36:37.687Z,28.55
2022-09-06T09:39:09.850Z,27.17
2022-09-06T09:41:39.612Z,27.96
2022-09-06T09:44:09.975Z,28.57
2022-09-06T09:46:39.683Z,27.17
2022-09-06T09:49:29.227Z,27.55
2022-09-06T09:52:14.405Z,26.94
2022-09-06T09:54:44.270Z,25.15
2022-09-06T09:57:15.309Z,26.11
2022-09-06T09:59:47.142Z,24.71
2022-09-06T10:02:39.137Z,24.77
2022-09-06T10:05:11.995Z,24.10
2022-09-06T10:07:44.018Z,23.75
2022-09-06T10:10:15.543Z,23.16
2022-09-06T10:12:42.903Z,23.31
2022-09-06T10:15:32.677Z,23.61
2022-09-06T10:17:59.269Z,23.59
2022-09-06T10:20:33.419Z,23.07
2022-09-06T10:26:42.012Z,21.70
2022-09-06T10:29:14.259Z,24.32
2022-09-06T10:31:51.461Z,23.33
2022-09-06T10:34:45.468Z,21.87
2022-09-06T10:37:29.342Z,22.24
2022-09-06T10:40:00.918Z,21.13
2022-09-06T10:42:46.372Z,22.60
2022-09-06T10:45:36.259Z,21.43
2022-09-06T10:48:14.407Z,22.19
2022-09-06T10:50:46.849Z,22.75
2022-09-06T10:53:56.685Z,22.13
2022-09-06T10:57:04.711Z,22.04
2022-09-06T10:59:55.597Z,22.13
2022-09-06T11:02:41.161Z,22.58
2022-09-06T11:08:51.199Z,22.09
2022-09-06T11:11:23.675Z,21.77
2022-09-06T11:13:50.541Z,23.53
2022-09-06T11:16:21.552Z,23.34
2022-09-06T11:18:59.622Z,23.09
2022-09-06T11:21:26.107Z,22.58
2022-09-06T11:24:13.890Z,23.15
2022-09-06T11:26:55.759Z,22.86
2022-09-06T11:29:24.807Z,23.00
2022-09-06T11:32:18.138Z,22.97
2022-09-06T11:34:54.388Z,22.60
2022-09-06T11:37:45.392Z,22.56
2022-09-06T11:42:52.161Z,23.58
2022-09-06T11:45:21.982Z,24.86
2022-09-06T11:47:50.438Z,23.73
2022-09-06T11:50:20.052Z,24.07
2022-09-06T11:52:55.403Z,24.28
2022-09-06T11:55:25.018Z,24.13
2022-09-06T11:57:57.392Z,24.42
2022-09-06T12:00:24.923Z,24.54
2022-09-06T12:02:52.887Z,23.98
2022-09-06T12:05:26.419Z,24.34
2022-09-06T12:08:12.933Z,24.97
2022-09-06T12:10:39.122Z,25.04
2022-09-06T12:13:36.780Z,25.19
2022-09-06T12:16:03.158Z,25.03
2022-09-06T12:18:48.224Z,26.34
2022-09-06T12:21:43.878Z,25.08
2022-09-06T12:24:45.899Z,24.02
2022-09-06T12:27:20.094Z,24.68
2022-09-06T12:29:59.417Z,24.67
2022-09-06T12:32:31.641Z,25.29
2022-09-06T12:38:07.120Z,28.39
2022-09-06T12:40:45.582Z,30.04
2022-09-06T12:43:14.167Z,29.43
2022-09-06T12:45:45.370Z,28.78
2022-09-06T12:48:16.107Z,28.82
2022-09-06T12:50:42.895Z,29.14
2022-09-06T12:53:26.622Z,29.30
2022-09-06T12:56:05.780Z,30.20
2022-09-06T12:58:32.354Z,31.33
2022-09-06T13:01:05.587Z,31.04
2022-09-06T13:03:41.215Z,31.51
2022-09-06T13:06:08.335Z,31.52
2022-09-06T13:08:39.252Z,32.64
2022-09-06T13:11:10.519Z,31.34
2022-09-06T13:13:37.228Z,33.11
2022-09-06T13:16:03.559Z,31.75
2022-09-06T13:18:39.679Z,31.59
2022-09-06T13:21:09.259Z,32.52
2022-09-06T13:23:50.382Z,31.30
2022-09-06T13:26:37.048Z,32.35
2022-09-06T13:29:15.333Z,31.60
2022-09-06T13:31:45.926Z,31.48
2022-09-06T13:34:23.732Z,32.20
2022-09-06T13:36:52.548Z,31.86
2022-09-06T13:39:37.529Z,33.33
2022-09-06T13:42:07.354Z,34.17
2022-09-06T13:44:35.676Z,34.38
2022-09-06T13:47:02.254Z,33.67
2022-09-06T13:49:29.346Z,33.75
2022-09-06T13:52:00.215Z,34.10
2022-09-06T13:54:26.828Z,34.51
2022-09-06T13:56:53.437Z,34.86
2022-09-06T13:59:20.112Z,35.10
2022-09-06T14:01:48.463Z,35.61
2022-09-06T14:04:20.130Z,35.28
2022-09-06T14:06:46.928Z,35.86
2022-09-06T14:09:13.511Z,36.21
2022-09-06T14:11:41.422Z,35.97
2022-09-06T14:14:10.106Z,35.84
2022-09-06T14:16:36.727Z,36.00
2022-09-06T14:19:04.786Z,35.85
2022-09-06T14:21:32.774Z,35.89
2022-09-06T14:24:03.898Z,35.76
2022-09-06T14:26:32.120Z,35.96
2022-09-06T14:28:58.532Z,35.83
2022-09-06T14:31:26.957Z,36.46
2022-09-06T14:33:54.737Z,36.72
2022-09-06T14:36:23.392Z,36.68
2022-09-06T14:38:50.428Z,36.25
2022-09-06T14:41:18.857Z,37.72
2022-09-06T14:43:50.151Z,37.70
2022-09-06T14:46:18.230Z,37.09
2022-09-06T14:48:45.298Z,38.30
2022-09-06T14:51:22.076Z,38.46
2022-09-06T14:53:51.983Z,38.66
2022-09-06T14:56:19.222Z,38.58
2022-09-06T14:58:46.660Z,38.54
2022-09-06T15:01:19.501Z,39.33
2022-09-06T15:03:48.636Z,40.32
2022-09-06T15:06:16.143Z,41.02
2022-09-06T15:08:42.865Z,40.62
2022-09-06T15:11:10.193Z,40.27
2022-09-06T15:13:37.276Z,40.21
2022-09-06T15:16:08.835Z,41.12
2022-09-06T15:18:35.741Z,42.12
2022-09-06T15:21:13.295Z,42.00
2022-09-06T15:23:39.974Z,42.67
2022-09-06T15:26:08.442Z,42.85
2022-09-06T15:28:35.934Z,44.40
2022-09-06T15:31:02.377Z,42.11
2022-09-06T15:33:30.762Z,43.40
2022-09-06T15:35:57.356Z,41.72
2022-09-06T15:38:23.852Z,41.44
2022-09-06T15:40:50.848Z,41.47
2022-09-06T15:43:17.168Z,41.15
2022-09-06T15:45:48.274Z,41.15
2022-09-06T15:48:16.557Z,41.04
2022-09-06T15:50:51.273Z,40.81
2022-09-06T15:53:19.652Z,42.08
2022-09-06T15:55:58.202Z,41.78
2022-09-06T15:58:26.665Z,42.30
2022-09-06T16:01:06.718Z,43.52
2022-09-06T16:03:45.868Z,42.83
2022-09-06T16:08:55.585Z,45.17
2022-09-06T16:11:21.966Z,45.46
2022-09-06T16:13:48.667Z,46.37
2022-09-06T16:16:17.085Z,46.00
2022-09-06T16:18:46.607Z,45.78
2022-09-06T16:21:28.346Z,46.70
2022-09-06T16:24:00.006Z,47.70
2022-09-06T16:26:32.343Z,48.72
2022-09-06T16:29:00.356Z,48.30
2022-09-06T16:31:27.594Z,50.59
2022-09-06T16:33:54.177Z,49.80
2022-09-06T16:36:21.645Z,49.92
2022-09-06T16:38:48.538Z,50.33
2022-09-06T16:41:28.695Z,49.51
2022-09-06T16:43:55.810Z,48.47
2022-09-06T16:46:23.860Z,48.84
2022-09-06T16:48:54.882Z,51.33
2022-09-06T16:51:23.892Z,49.96
2022-09-06T16:53:52.000Z,50.21
2022-09-06T16:56:21.140Z,51.11
2022-09-06T16:58:54.167Z,50.68
2022-09-06T17:01:21.312Z,54.13
2022-09-06T17:03:48.476Z,50.86
2022-09-06T17:06:15.186Z,51.04
2022-09-06T17:08:41.948Z,50.21
2022-09-06T17:11:17.190Z,49.96
2022-09-06T17:13:45.297Z,50.06
2022-09-06T17:16:31.474Z,50.66
2022-09-06T17:18:59.604Z,50.18
2022-09-06T17:21:26.248Z,51.08
2022-09-06T17:23:53.077Z,51.46
2022-09-06T17:26:21.276Z,51.66
2022-09-06T17:28:49.636Z,52.47
2022-09-06T17:31:16.663Z,51.60
2022-09-06T17:33:43.025Z,52.81
2022-09-06T17:36:14.787Z,55.38
2022-09-06T17:38:42.944Z,55.56
2022-09-06T17:41:27.928Z,53.91
2022-09-06T17:43:54.891Z,57.67
2022-09-06T17:46:26.594Z,56.38
2022-09-06T17:48:55.115Z,55.37
2022-09-06T17:51:21.839Z,55.63
2022-09-06T17:53:48.284Z,56.93
2022-09-06T17:56:17.387Z,56.77
2022-09-06T17:58:45.054Z,58.82
2022-09-06T18:01:13.981Z,57.77
2022-09-06T18:03:42.008Z,57.48
2022-09-06T18:06:13.190Z,60.11
2022-09-06T18:08:41.874Z,59.37
2022-09-06T18:11:13.957Z,60.65
2022-09-06T18:13:41.978Z,58.87
2022-09-06T18:16:10.024Z,59.66
2022-09-06T18:18:36.726Z,60.11
2022-09-06T18:21:04.587Z,60.06
2022-09-06T18:23:31.853Z,59.05
2022-09-06T18:26:06.062Z,60.21
2022-09-06T18:28:34.947Z,60.28
2022-09-06T18:31:05.300Z,60.12
2022-09-06T18:33:31.772Z,59.33
2022-09-06T18:35:58.486Z,58.54
2022-09-06T18:38:25.948Z,58.51
2022-09-06T18:40:53.162Z,58.72
2022-09-06T18:43:20.314Z,58.05
2022-09-06T18:45:46.702Z,59.63
2022-09-06T18:48:13.531Z,58.49
2022-09-06T18:50:40.248Z,58.29
2022-09-06T18:53:06.776Z,60.31
2022-09-06T18:55:43.492Z,60.16
2022-09-06T18:58:14.138Z,61.08
2022-09-06T19:00:40.827Z,59.93
2022-09-06T19:03:07.211Z,61.73
2022-09-06T19:05:37.067Z,61.91
2022-09-06T19:08:04.553Z,64.32
2022-09-06T19:10:31.158Z,63.44
2022-09-06T19:12:57.791Z,64.26
2022-09-06T19:15:24.695Z,64.25
2022-09-06T19:17:51.882Z,64.91
2022-09-06T19:20:19.383Z,65.37
2022-09-06T19:22:45.925Z,66.61
2022-09-06T19:25:12.280Z,66.29
2022-09-06T19:27:38.916Z,67.09
2022-09-06T19:30:06.927Z,68.07
2022-09-06T19:32:34.590Z,67.80
2022-09-06T19:35:01.497Z,68.70
2022-09-06T19:37:29.519Z,69.46
2022-09-06T19:39:56.346Z,68.94
2022-09-06T19:42:23.317Z,67.83
2022-09-06T19:44:49.647Z,69.33
2022-09-06T19:47:15.982Z,69.35
2022-09-06T19:49:42.628Z,72.88
2022-09-06T19:52:09.765Z,73.63
2022-09-06T19:54:37.368Z,76.28
2022-09-06T19:57:04.407Z,76.25
2022-09-06T19:59:31.001Z,78.71
2022-09-06T20:01:57.393Z,81.74
2022-09-06T20:04:24.230Z,83.43
2022-09-06T20:06:50.575Z,85.59
2022-09-06T20:09:16.995Z,86.08
2022-09-06T20:11:44.025Z,86.70
2022-09-06T20:14:11.577Z,88.53
2022-09-06T20:16:41.500Z,89.77
2022-09-06T20:19:09.412Z,90.95
2022-09-06T20:21:35.743Z,90.49
2022-09-06T20:24:02.291Z,91.37
2022-09-06T20:26:30.366Z,91.27
2022-09-06T20:29:01.328Z,91.21
2022-09-06T20:31:29.167Z,92.41
2022-09-06T20:33:56.062Z,92.82
2022-09-06T20:36:22.377Z,93.11
2022-09-06T20:38:48.900Z,93.96
2022-09-06T20:41:18.202Z,94.72
2022-09-06T20:43:44.948Z,94.43
2022-09-06T20:46:16.761Z,95.36
2022-09-06T20:48:45.362Z,95.50
2022-09-06T20:51:18.714Z,96.00
2022-09-06T20:53:51.838Z,96.49
2022-09-06T20:56:20.117Z,96.44
2022-09-06T20:58:51.638Z,96.13
2022-09-06T21:01:23.007Z,94.44
2022-09-06T21:03:52.086Z,96.19
2022-09-06T21:06:20.331Z,95.90
2022-09-06T21:08:47.280Z,96.58
2022-09-06T21:11:14.103Z,97.40
2022-09-06T21:13:40.730Z,96.08
2022-09-06T21:16:07.730Z,94.93
2022-09-06T21:18:34.979Z,93.66
2022-09-06T21:21:03.895Z,95.59
2022-09-06T21:23:32.793Z,94.82
2022-09-06T21:26:01.216Z,96.25
2022-09-06T21:28:29.513Z,97.65
2022-09-06T21:31:11.721Z,100.00
2022-09-06T21:33:40.589Z,100.00
2022-09-06T21:36:11.899Z,100.00
2022-09-06T21:38:40.528Z,100.00
2022-09-06T21:41:08.027Z,100.00
2022-09-06T21:43:34.991Z,100.00
2022-09-06T21:46:07.013Z,100.00
2022-09-06T21:48:44.762Z,100.00
2022-09-06T21:51:14.119Z,100.00
2022-09-06T21:53:42.047Z,100.00
2022-09-06T21:56:08.857Z,100.00
2022-09-06T21:58:35.581Z,100.00
2022-09-06T22:01:02.413Z,100.00
2022-09-06T22:03:32.008Z,100.00
2022-09-06T22:05:58.863Z,99.32
2022-09-06T22:08:25.822Z,96.31
2022-09-06T22:10:52.507Z,98.80
2022-09-06T22:13:19.928Z,98.69
2022-09-06T22:15:46.439Z,96.98
2022-09-06T22:18:13.597Z,97.23
2022-09-06T22:20:40.109Z,97.66
2022-09-06T22:23:07.640Z,97.70
2022-09-06T22:25:34.597Z,98.88
2022-09-06T22:28:01.366Z,99.50
2022-09-06T22:30:28.005Z,98.88
2022-09-06T22:32:54.756Z,97.96
2022-09-06T22:35:21.427Z,96.52
2022-09-06T22:37:47.765Z,96.03
2022-09-06T22:40:14.566Z,95.72
2022-09-06T22:42:40.913Z,96.09
2022-09-06T22:45:07.724Z,95.90
2022-09-06T22:47:34.343Z,95.53
2022-09-06T22:50:00.652Z,95.55
2022-09-06T22:52:27.112Z,93.33
2022-09-06T22:54:53.752Z,93.03
2022-09-06T22:57:20.067Z,92.56
2022-09-06T22:59:46.383Z,92.02
2022-09-06T23:02:13.023Z,91.89
2022-09-06T23:04:39.401Z,91.15
2022-09-06T23:07:06.082Z,91.55
2022-09-06T23:09:32.741Z,92.23
2022-09-06T23:11:59.120Z,91.21
2022-09-06T23:14:27.915Z,91.47
2022-09-06T23:16:54.564Z,92.02
2022-09-06T23:19:20.901Z,92.59
2022-09-06T23:21:47.211Z,93.00
2022-09-06T23:24:13.920Z,91.60
2022-09-06T23:26:40.347Z,92.77
2022-09-06T23:29:07.926Z,92.27
2022-09-06T23:31:35.089Z,92.04
2022-09-06T23:34:02.370Z,92.16
2022-09-06T23:36:28.784Z,91.91
2022-09-06T23:38:56.067Z,90.76
2022-09-06T23:41:22.816Z,90.93
2022-09-06T23:43:49.458Z,90.21
2022-09-06T23:46:16.272Z,90.21
2022-09-06T23:48:43.474Z,91.99
2022-09-06T23:51:10.119Z,91.01
2022-09-06T23:53:36.806Z,95.53
2022-09-06T23:56:03.766Z,98.85
2022-09-06T23:58:30.391Z,100.00
